Terminal Aerodrome Forecast
Issued by NWS

Home | Current Version | Previous Version | Text Only | Print | Product List | Glossary On
Versions: 1 2 3 4 5 6 7 8 9 10 11 12 13 14 15 16 17 18 19 20 21 22
202
FTUS46 KLOX 221740
TAFLGB
TAF
KLGB 221740Z 2218/2318 29006KT P6SM BKN028 BKN040
     FM222000 25012G20KT P6SM BKN050
     FM230400 28006KT P6SM BKN050
     FM230600 VRB03KT P6SM BKN035
     FM231600 28006KT P6SM BKN025=

USA.gov is the U.S. government's official web portal to all federal, state and local government web resources and services.